Time;durP1;ratioP1;P1;durP2;ratioP2;P2;SDS_P1;SDS_P2;PMS_P1;PMS_P2;Temp;Humidity;BMP_temperature;BMP_pressure;BME280_temperature;BME280_humidity;BME280_pressure;Samples;Min_cycle;Max_cycle;Signal;HPM_P1;HPM_P2
2022/08/30 00:02:59;;;;;;;0.20;0.20;;;21.90;71.40;;;;;;5036595;28;20036;-66
2022/08/30 00:05:29;;;;;;;9.38;0.85;;;21.90;71.50;;;;;;5033547;28;20029;-66
2022/08/30 00:07:56;;;;;;;0.17;0.13;;;21.90;71.50;;;;;;5033601;28;20028;-66
2022/08/30 00:10:23;;;;;;;4.68;0.40;;;21.80;71.40;;;;;;5050062;28;20545;-66
2022/08/30 00:12:49;;;;;;;0.20;0.20;;;21.70;71.70;;;;;;5050918;28;20123;-66
2022/08/30 00:15:16;;;;;;;0.90;0.47;;;21.60;72.00;;;;;;5051055;28;20051;-66
2022/08/30 00:17:42;;;;;;;0.82;0.52;;;21.50;72.10;;;;;;5033553;28;20043;-66
2022/08/30 00:20:12;;;;;;;0.00;0.00;;;21.40;72.50;;;;;;5033223;28;20052;-66
2022/08/30 00:22:39;;;;;;;0.17;0.17;;;21.40;72.90;;;;;;5050794;28;20523;-67
2022/08/30 00:25:07;;;;;;;0.00;0.00;;;21.40;73.20;;;;;;5050802;28;20051;-66
2022/08/30 00:27:33;;;;;;;0.22;0.22;;;21.30;73.00;;;;;;5051333;28;20064;-66
2022/08/30 00:29:59;;;;;;;0.47;0.32;;;21.30;73.30;;;;;;5033243;28;20039;-66
2022/08/30 00:32:25;;;;;;;0.00;0.00;;;21.40;73.30;;;;;;5032951;28;20381;-66
2022/08/30 00:34:52;;;;;;;0.00;0.00;;;21.40;73.40;;;;;;5033152;28;20040;-66
2022/08/30 00:37:19;;;;;;;2.00;1.08;;;21.40;73.00;;;;;;5032750;28;20112;-66
2022/08/30 00:39:46;;;;;;;0.00;0.00;;;21.30;73.30;;;;;;5032888;28;20040;-66
2022/08/30 00:42:13;;;;;;;0.00;0.00;;;21.30;73.60;;;;;;5032743;28;20516;-66
2022/08/30 00:44:40;;;;;;;0.93;0.65;;;21.20;73.80;;;;;;5049564;28;20040;-66
2022/08/30 00:47:06;;;;;;;0.05;0.05;;;21.00;74.20;;;;;;5032999;28;20029;-66
2022/08/30 00:49:34;;;;;;;0.00;0.00;;;20.90;74.30;;;;;;5032762;28;20028;-66
2022/08/30 00:52:01;;;;;;;2.00;0.63;;;20.80;74.60;;;;;;5033018;28;20036;-66
2022/08/30 00:54:29;;;;;;;0.10;0.00;;;20.70;75.00;;;;;;5033079;28;20432;-66
2022/08/30 00:56:55;;;;;;;1.88;0.98;;;20.60;75.40;;;;;;5050646;28;20103;-66
2022/08/30 00:59:23;;;;;;;0.28;0.28;;;20.70;75.70;;;;;;5033047;28;20035;-66
2022/08/30 01:01:49;;;;;;;5.72;1.35;;;20.80;75.40;;;;;;5032426;28;20090;-66
2022/08/30 01:04:18;;;;;;;0.70;0.40;;;20.80;75.70;;;;;;5029557;28;20045;-66
2022/08/30 01:06:44;;;;;;;0.13;0.13;;;20.90;76.00;;;;;;5024195;28;20084;-66
2022/08/30 01:09:11;;;;;;;0.00;0.00;;;21.00;75.40;;;;;;5046446;28;20017;-66
2022/08/30 01:11:40;;;;;;;0.00;0.00;;;21.00;75.30;;;;;;5032463;28;20028;-66
2022/08/30 01:14:08;;;;;;;0.17;0.17;;;21.00;75.50;;;;;;5032686;28;20401;-66
2022/08/30 01:16:35;;;;;;;0.20;0.20;;;21.00;75.60;;;;;;5016567;28;20032;-66
2022/08/30 01:19:02;;;;;;;0.00;0.00;;;21.00;75.80;;;;;;5012890;28;20117;-66
2022/08/30 01:21:33;;;;;;;0.32;0.32;;;21.10;75.90;;;;;;5012860;28;20167;-66
2022/08/30 01:24:01;;;;;;;0.00;0.00;;;21.10;75.90;;;;;;5036780;28;20041;-66
2022/08/30 01:26:29;;;;;;;0.00;0.00;;;21.10;76.20;;;;;;5032635;28;20470;-66
2022/08/30 01:29:01;;;;;;;0.10;0.10;;;21.10;76.30;;;;;;5032401;28;20036;-66
2022/08/30 01:31:27;;;;;;;0.57;0.50;;;21.10;76.50;;;;;;5033201;28;20029;-66
2022/08/30 01:33:52;;;;;;;0.45;0.20;;;21.00;77.00;;;;;;5050137;28;20360;-66
2022/08/30 01:36:19;;;;;;;0.00;0.00;;;20.90;77.20;;;;;;5050356;28;20640;-66
2022/08/30 01:38:53;;;;;;;2.20;1.08;;;20.90;77.30;;;;;;5032242;28;20155;-66
2022/08/30 01:41:33;;;;;;;0.00;0.00;;;20.80;77.60;;;;;;5023796;28;20069;-66
2022/08/30 01:44:04;;;;;;;0.63;0.43;;;20.90;77.70;;;;;;5030080;28;20382;-66
2022/08/30 01:46:36;;;;;;;;;;;20.90;77.60;;;;;;5013405;28;20034;-66
2022/08/30 01:49:06;;;;;;;0.10;0.10;;;20.90;77.90;;;;;;5029437;28;19909;-66
2022/08/30 01:51:33;;;;;;;1.58;0.98;;;20.90;77.90;;;;;;4999838;28;20099;-66
2022/08/30 01:53:59;;;;;;;0.22;0.20;;;20.80;78.30;;;;;;5033471;28;20560;-66
2022/08/30 01:56:28;;;;;;;0.20;0.20;;;20.60;78.70;;;;;;5033536;28;20421;-66
2022/08/30 01:58:55;;;;;;;0.00;0.00;;;20.60;78.90;;;;;;5015125;28;20489;-66
2022/08/30 02:01:26;;;;;;;0.10;0.10;;;20.50;79.00;;;;;;5033818;28;20030;-66
2022/08/30 02:03:53;;;;;;;;;;;20.60;79.30;;;;;;5016557;28;20030;-66
2022/08/30 02:06:21;;;;;;;0.10;0.10;;;20.50;79.50;;;;;;5033612;28;20419;-66
2022/08/30 02:08:47;;;;;;;1.00;0.75;;;20.50;79.40;;;;;;5015888;28;20052;-66
2022/08/30 02:11:14;;;;;;;0.35;0.35;;;20.30;79.70;;;;;;5015835;28;20508;-66
2022/08/30 02:13:42;;;;;;;0.05;0.05;;;20.10;80.50;;;;;;5032937;28;20034;-66
2022/08/30 02:16:11;;;;;;;0.00;0.00;;;19.80;81.30;;;;;;5047859;28;20039;-66
2022/08/30 02:18:40;;;;;;;0.00;0.00;;;19.70;81.90;;;;;;5035619;28;20515;-66
2022/08/30 02:21:07;;;;;;;0.00;0.00;;;19.50;82.80;;;;;;5050323;23;20119;-70
2022/08/30 02:23:34;;;;;;;0.50;0.50;;;19.40;83.20;;;;;;4993267;28;20053;-70
2022/08/30 02:26:00;;;;;;;0.35;0.15;;;19.40;83.80;;;;;;5013449;28;20026;-70
2022/08/30 02:28:26;;;;;;;0.30;0.30;;;19.40;84.20;;;;;;5013361;28;20025;-70
2022/08/30 02:30:52;;;;;;;1.65;0.75;;;19.40;84.20;;;;;;5013477;28;20025;-71
2022/08/30 02:33:18;;;;;;;0.03;0.03;;;19.40;84.20;;;;;;4995352;28;20088;-71
2022/08/30 02:35:44;;;;;;;0.10;0.10;;;19.50;84.10;;;;;;5013510;28;20037;-71
2022/08/30 02:38:10;;;;;;;2.60;0.32;;;19.30;84.40;;;;;;5012982;28;20077;-71
2022/08/30 02:40:36;;;;;;;0.13;0.10;;;19.40;84.70;;;;;;4995729;28;20438;-71
2022/08/30 02:43:02;;;;;;;0.40;0.40;;;19.40;84.60;;;;;;4995604;28;20121;-71
2022/08/30 02:45:28;;;;;;;0.57;0.38;;;19.30;84.80;;;;;;4995705;28;20104;-71
2022/08/30 02:47:55;;;;;;;0.00;0.00;;;19.30;85.10;;;;;;5012958;28;20030;-71
2022/08/30 02:50:23;;;;;;;0.55;0.55;;;19.30;85.30;;;;;;5012833;28;20050;-71
2022/08/30 02:52:48;;;;;;;0.00;0.00;;;19.20;85.60;;;;;;5012908;28;20344;-71
2022/08/30 02:55:16;;;;;;;0.20;0.20;;;19.20;85.80;;;;;;5012868;28;20492;-71
2022/08/30 02:57:43;;;;;;;0.00;0.00;;;19.10;86.20;;;;;;5012633;28;20029;-71
2022/08/30 03:00:13;;;;;;;0.00;0.00;;;19.00;86.60;;;;;;4995280;28;20103;-70
2022/08/30 03:02:40;;;;;;;0.30;0.30;;;18.90;87.00;;;;;;4992728;28;20044;-71
2022/08/30 03:05:09;;;;;;;0.10;0.10;;;18.90;87.60;;;;;;5005449;28;20033;-71
2022/08/30 03:07:35;;;;;;;0.00;0.00;;;18.90;87.70;;;;;;5008866;28;20062;-71
2022/08/30 03:10:01;;;;;;;0.00;0.00;;;19.00;87.70;;;;;;5012449;28;20034;-71
2022/08/30 03:12:27;;;;;;;0.00;0.00;;;19.00;87.80;;;;;;5012574;28;20037;-71
2022/08/30 03:14:53;;;;;;;0.00;0.00;;;19.10;87.90;;;;;;5012374;28;20540;-71
2022/08/30 03:17:18;;;;;;;0.00;0.00;;;19.20;87.70;;;;;;4994957;28;20116;-70
2022/08/30 03:19:45;;;;;;;0.65;0.30;;;19.10;88.10;;;;;;5012095;28;20041;-71
2022/08/30 03:22:11;;;;;;;0.30;0.20;;;19.30;87.60;;;;;;5010838;28;20033;-70
2022/08/30 03:24:37;;;;;;;0.00;0.00;;;19.30;87.60;;;;;;5011954;28;20117;-70
2022/08/30 03:27:03;;;;;;;0.22;0.20;;;19.20;87.70;;;;;;5012206;28;20033;-70
2022/08/30 03:29:29;;;;;;;4.85;1.00;;;19.00;88.30;;;;;;5012034;28;20030;-70
2022/08/30 03:31:56;;;;;;;0.32;0.32;;;18.80;89.30;;;;;;5011784;28;20390;-71
2022/08/30 03:34:24;;;;;;;0.00;0.00;;;18.80;90.00;;;;;;4994539;28;20022;-71
2022/08/30 03:36:55;;;;;;;0.10;0.10;;;18.60;90.10;;;;;;4994540;28;20037;-71
2022/08/30 03:39:23;;;;;;;0.30;0.30;;;18.50;90.40;;;;;;5011881;28;20727;-71
2022/08/30 03:41:49;;;;;;;0.17;0.10;;;18.40;90.70;;;;;;4994252;28;20502;-71
2022/08/30 03:44:15;;;;;;;0.20;0.15;;;18.40;91.00;;;;;;5011688;28;20037;-71
2022/08/30 03:46:41;;;;;;;0.00;0.00;;;18.30;91.20;;;;;;4994424;28;20030;-70
2022/08/30 03:49:08;;;;;;;0.55;0.55;;;18.30;91.50;;;;;;5011543;28;20025;-70
2022/08/30 03:51:33;;;;;;;0.00;0.00;;;18.30;91.80;;;;;;5003070;28;20776;-70
2022/08/30 03:54:00;;;;;;;0.00;0.00;;;18.20;92.00;;;;;;4964450;28;20137;-70
2022/08/30 03:56:26;;;;;;;0.00;0.00;;;18.10;92.30;;;;;;4988914;28;20034;-70
2022/08/30 03:58:52;;;;;;;0.10;0.10;;;18.20;92.40;;;;;;4995755;28;20034;-70
2022/08/30 04:01:18;;;;;;;2.95;0.95;;;18.10;92.60;;;;;;5011612;28;20045;-71
2022/08/30 04:03:44;;;;;;;0.25;0.20;;;18.00;92.90;;;;;;5009994;28;20480;-70
2022/08/30 04:06:10;;;;;;;0.20;0.20;;;18.00;93.10;;;;;;5011392;28;20103;-71
2022/08/30 04:08:38;;;;;;;0.13;0.13;;;18.10;93.30;;;;;;5010142;28;20026;-70
2022/08/30 04:11:05;;;;;;;0.73;0.73;;;18.00;93.40;;;;;;5010758;28;20021;-69
2022/08/30 04:13:32;;;;;;;0.17;0.17;;;17.90;93.70;;;;;;4993220;28;20072;-71
2022/08/30 04:15:58;;;;;;;0.43;0.43;;;17.90;94.00;;;;;;4993490;28;20120;-71
2022/08/30 04:18:24;;;;;;;2.42;1.77;;;17.90;94.10;;;;;;5011244;28;20076;-71
2022/08/30 04:20:52;;;;;;;0.70;0.57;;;17.90;94.30;;;;;;5010844;28;20037;-71
2022/08/30 04:23:18;;;;;;;0.00;0.00;;;17.90;94.80;;;;;;5010829;28;20050;-71
2022/08/30 04:25:45;;;;;;;0.10;0.10;;;17.80;94.80;;;;;;5009659;28;20500;-71
2022/08/30 04:28:11;;;;;;;0.55;0.52;;;17.80;95.10;;;;;;4993576;28;20068;-70
2022/08/30 04:30:42;;;;;;;0.00;0.00;;;17.80;95.20;;;;;;5011131;28;20058;-70
2022/08/30 04:33:10;;;;;;;0.65;0.47;;;17.90;95.40;;;;;;5010399;28;20454;-70
2022/08/30 04:35:40;;;;;;;0.52;0.43;;;17.90;95.20;;;;;;5010901;28;20033;-70
2022/08/30 04:38:05;;;;;;;0.00;0.00;;;18.00;95.60;;;;;;4990990;28;20065;-70
2022/08/30 04:40:31;;;;;;;0.50;0.45;;;18.10;95.30;;;;;;5010828;28;20084;-70
2022/08/30 04:42:59;;;;;;;0.32;0.32;;;18.20;95.10;;;;;;5010513;28;20030;-70
2022/08/30 04:45:25;;;;;;;0.15;0.15;;;18.20;94.90;;;;;;5010676;28;20037;-70
2022/08/30 04:47:53;;;;;;;1.13;0.85;;;18.10;94.90;;;;;;4992996;28;20022;-70
2022/08/30 04:50:20;;;;;;;0.10;0.10;;;18.10;95.10;;;;;;4992701;28;20037;-70
2022/08/30 04:52:46;;;;;;;0.00;0.00;;;17.80;95.60;;;;;;4992918;28;20040;-70
2022/08/30 04:55:13;;;;;;;0.00;0.00;;;17.70;96.00;;;;;;5010314;28;20045;-69
2022/08/30 04:57:40;;;;;;;0.60;0.60;;;17.70;96.30;;;;;;5001818;28;20118;-69
2022/08/30 05:00:10;;;;;;;0.28;0.10;;;17.70;96.60;;;;;;4998392;28;20045;-70
2022/08/30 05:02:37;;;;;;;0.25;0.25;;;17.80;96.70;;;;;;4990606;28;20394;-69
2022/08/30 05:07:48;;;;;;;2.20;0.47;;;17.80;96.50;;;;;;4990691;28;20034;-69
2022/08/30 05:10:13;;;;;;;0.40;0.40;;;17.80;96.60;;;;;;4990761;28;20137;-70
2022/08/30 05:12:42;;;;;;;0.10;0.10;;;17.80;96.50;;;;;;5009966;28;20167;-70
2022/08/30 05:15:10;;;;;;;0.00;0.00;;;17.90;96.30;;;;;;5008809;28;20053;-68
2022/08/30 05:17:39;;;;;;;0.10;0.10;;;17.90;96.40;;;;;;4992693;28;20041;-69
2022/08/30 05:20:08;;;;;;;0.88;0.82;;;18.10;96.10;;;;;;5009951;28;20112;-69
2022/08/30 05:22:40;;;;;;;0.08;0.08;;;18.10;96.10;;;;;;4976088;28;20099;-69
2022/08/30 05:25:07;;;;;;;1.05;0.95;;;18.20;95.80;;;;;;5012761;28;20030;-70
2022/08/30 05:27:33;;;;;;;14.60;3.55;;;18.20;95.80;;;;;;5012817;28;20030;-69
2022/08/30 05:29:59;;;;;;;0.13;0.13;;;18.20;95.80;;;;;;5012613;28;20508;-70
2022/08/30 05:32:25;;;;;;;2.92;1.02;;;18.00;96.00;;;;;;5013935;28;20030;-70
2022/08/30 05:34:50;;;;;;;0.00;0.00;;;18.00;96.60;;;;;;5013482;28;20034;-70
2022/08/30 05:37:16;;;;;;;0.38;0.38;;;17.90;96.50;;;;;;5013062;28;20431;-69
2022/08/30 05:39:42;;;;;;;0.65;0.32;;;17.80;96.60;;;;;;5013776;28;20036;-70
2022/08/30 05:42:07;;;;;;;0.00;0.00;;;17.80;96.80;;;;;;5013450;28;20615;-70
2022/08/30 05:44:33;;;;;;;1.83;0.88;;;17.90;96.90;;;;;;5013636;28;20033;-70
2022/08/30 05:46:59;;;;;;;0.60;0.60;;;17.90;96.80;;;;;;5013723;28;20398;-70
2022/08/30 05:49:24;;;;;;;0.28;0.20;;;17.90;96.80;;;;;;5012030;28;20030;-69
2022/08/30 05:51:50;;;;;;;0.15;0.15;;;17.90;96.80;;;;;;5009796;28;20045;-69
2022/08/30 05:54:16;;;;;;;0.00;0.00;;;18.00;96.90;;;;;;4995826;28;20121;-70
2022/08/30 05:56:44;;;;;;;0.57;0.32;;;18.00;96.80;;;;;;5013258;28;20026;-69
2022/08/30 05:59:11;;;;;;;0.05;0.05;;;18.10;96.80;;;;;;4996045;28;20088;-69
2022/08/30 06:01:41;;;;;;;0.10;0.10;;;18.10;96.50;;;;;;4999704;28;20113;-69
2022/08/30 06:04:10;;;;;;;0.00;0.00;;;18.10;96.60;;;;;;4995361;28;20033;-70
2022/08/30 06:06:39;;;;;;;0.55;0.20;;;18.20;96.60;;;;;;5013117;28;20387;-69
2022/08/30 06:09:07;;;;;;;0.22;0.22;;;18.30;96.30;;;;;;4995666;28;20382;-69
2022/08/30 06:11:34;;;;;;;0.80;0.68;;;18.40;96.00;;;;;;5013291;28;20026;-69
2022/08/30 06:14:02;;;;;;;0.63;0.57;;;18.40;95.80;;;;;;4995511;28;20120;-70
2022/08/30 06:16:28;;;;;;;0.00;0.00;;;18.40;96.00;;;;;;5013171;28;20095;-69
2022/08/30 06:18:56;;;;;;;0.20;0.20;;;18.50;95.70;;;;;;5012831;28;20068;-70
2022/08/30 06:21:29;;;;;;;0.10;0.10;;;18.60;95.50;;;;;;5012218;28;20061;-67
2022/08/30 06:23:56;;;;;;;0.17;0.17;;;18.60;95.50;;;;;;5011153;28;20141;-68
2022/08/30 06:26:23;;;;;;;0.00;0.00;;;18.50;95.70;;;;;;4994924;28;20076;-68
2022/08/30 06:28:49;;;;;;;1.13;0.70;;;18.50;95.90;;;;;;4995118;28;20490;-68
2022/08/30 06:31:18;;;;;;;0.43;0.38;;;18.50;95.80;;;;;;5012341;28;20026;-67
2022/08/30 06:33:45;;;;;;;0.43;0.43;;;18.40;95.80;;;;;;4995023;28;20037;-67
2022/08/30 06:36:17;;;;;;;0.00;0.00;;;18.50;95.90;;;;;;4994335;28;20037;-67
2022/08/30 06:38:44;;;;;;;0.22;0.22;;;18.50;95.80;;;;;;5012181;28;20113;-67
2022/08/30 06:41:18;;;;;;;0.10;0.10;;;18.50;95.90;;;;;;4995194;28;20026;-68
2022/08/30 06:43:44;;;;;;;0.45;0.43;;;18.50;95.80;;;;;;5012320;28;20034;-67
2022/08/30 06:46:17;;;;;;;0.40;0.40;;;18.60;95.80;;;;;;4994895;28;20032;-67
2022/08/30 06:48:43;;;;;;;0.00;0.00;;;18.70;95.60;;;;;;4995207;28;20026;-67
2022/08/30 06:51:08;;;;;;;0.60;0.40;;;18.90;95.20;;;;;;4994626;28;20096;-68
2022/08/30 06:53:35;;;;;;;0.00;0.00;;;19.00;95.20;;;;;;5012083;28;20490;-67
2022/08/30 06:56:10;;;;;;;6.13;0.70;;;19.00;95.00;;;;;;5012115;28;20474;-68
2022/08/30 06:58:38;;;;;;;0.28;0.28;;;19.10;94.90;;;;;;4994966;28;20073;-68
2022/08/30 07:01:05;;;;;;;0.20;0.20;;;19.10;95.00;;;;;;4994807;28;20033;-68
2022/08/30 07:03:31;;;;;;;0.40;0.40;;;19.20;94.80;;;;;;4994597;28;20045;-68
2022/08/30 07:05:57;;;;;;;0.32;0.20;;;19.40;94.40;;;;;;5012243;28;20026;-67
2022/08/30 07:08:24;;;;;;;0.50;0.50;;;19.40;94.30;;;;;;4994643;28;20026;-68
2022/08/30 07:10:52;;;;;;;0.20;0.20;;;19.40;94.20;;;;;;4994600;28;20021;-68
2022/08/30 07:13:19;;;;;;;2.85;1.60;;;19.50;93.90;;;;;;4994484;28;20030;-68
2022/08/30 07:15:46;;;;;;;0.22;0.22;;;19.60;93.90;;;;;;4995200;28;20164;-68
2022/08/30 07:21:04;;;;;;;0.43;0.43;;;19.80;93.80;;;;;;4997108;28;20508;-68
2022/08/30 07:23:30;;;;;;;1.15;0.60;;;20.00;93.00;;;;;;5011650;28;20048;-68
2022/08/30 07:25:55;;;;;;;0.35;0.20;;;20.00;92.90;;;;;;5011876;28;20160;-68
2022/08/30 07:28:21;;;;;;;0.35;0.35;;;20.10;92.90;;;;;;4994326;28;20029;-68
2022/08/30 07:30:47;;;;;;;1.02;0.88;;;20.20;92.80;;;;;;4994166;28;20391;-68
2022/08/30 07:33:13;;;;;;;0.70;0.43;;;20.20;92.50;;;;;;4994001;28;20500;-68
2022/08/30 07:35:39;;;;;;;0.20;0.20;;;20.40;92.30;;;;;;5011715;28;20088;-68
2022/08/30 07:38:05;;;;;;;3.63;1.13;;;20.50;92.20;;;;;;4993959;28;20030;-65
2022/08/30 07:40:30;;;;;;;0.80;0.52;;;20.60;92.10;;;;;;5011346;28;20026;-66
2022/08/30 07:42:57;;;;;;;7.55;0.47;;;20.70;92.00;;;;;;5011491;28;20117;-67
2022/08/30 07:45:23;;;;;;;0.65;0.57;;;20.80;91.60;;;;;;5011411;28;20065;-67
2022/08/30 07:47:49;;;;;;;1.33;0.15;;;20.90;91.50;;;;;;5010394;28;20068;-67
2022/08/30 07:50:14;;;;;;;0.00;0.00;;;21.00;91.30;;;;;;4993627;28;20026;-67
2022/08/30 07:52:40;;;;;;;0.15;0.15;;;21.10;91.30;;;;;;4995444;28;20030;-67
2022/08/30 07:55:07;;;;;;;0.73;0.73;;;21.20;90.90;;;;;;4990639;28;20074;-67
2022/08/30 07:57:33;;;;;;;0.00;0.00;;;21.30;90.90;;;;;;4974476;28;20030;-67
2022/08/30 08:00:00;;;;;;;0.73;0.52;;;21.50;90.80;;;;;;4990287;28;20080;-67
2022/08/30 08:02:26;;;;;;;0.28;0.10;;;21.60;90.50;;;;;;5011204;28;20628;-67
2022/08/30 08:04:52;;;;;;;5.53;0.93;;;21.70;90.40;;;;;;5009922;28;20034;-67
2022/08/30 08:07:18;;;;;;;1.80;1.33;;;21.70;89.80;;;;;;5011229;28;20029;-67
2022/08/30 08:09:44;;;;;;;0.00;0.00;;;21.90;89.80;;;;;;4993219;28;20025;-67
2022/08/30 08:12:11;;;;;;;0.05;0.05;;;22.00;89.70;;;;;;5010914;28;20113;-67
2022/08/30 08:14:36;;;;;;;0.05;0.05;;;22.20;89.20;;;;;;5005699;28;20060;-67
2022/08/30 08:17:03;;;;;;;0.82;0.68;;;22.40;88.60;;;;;;5011245;28;20466;-67
2022/08/30 08:19:29;;;;;;;0.22;0.10;;;22.50;88.20;;;;;;5011055;28;20463;-67
2022/08/30 08:21:58;;;;;;;0.38;0.22;;;22.60;87.50;;;;;;5028695;23;20744;-68
2022/08/30 08:24:26;;;;;;;0.20;0.17;;;22.80;87.30;;;;;;5048251;28;20499;-69
2022/08/30 08:26:52;;;;;;;0.68;0.35;;;22.80;86.90;;;;;;5049967;28;20037;-69
2022/08/30 08:29:18;;;;;;;0.10;0.10;;;22.90;87.60;;;;;;5039949;28;20026;-69
2022/08/30 08:31:45;;;;;;;0.57;0.32;;;23.10;86.40;;;;;;5027971;28;20032;-69
2022/08/30 08:34:14;;;;;;;0.17;0.17;;;23.20;86.30;;;;;;5010405;28;20064;-69
2022/08/30 08:36:40;;;;;;;0.08;0.08;;;23.30;85.70;;;;;;5009018;28;20490;-68
2022/08/30 08:39:08;;;;;;;0.10;0.10;;;23.50;85.50;;;;;;5010375;28;20042;-68
2022/08/30 08:41:55;;;;;;;0.47;0.43;;;23.60;85.30;;;;;;5013325;28;20044;-68
2022/08/30 08:44:58;;;;;;;0.43;0.43;;;23.60;84.40;;;;;;5029765;28;20037;-68
2022/08/30 08:48:03;;;;;;;0.65;0.52;;;23.80;84.50;;;;;;5030186;28;20505;-68
2022/08/30 08:50:30;;;;;;;0.00;0.00;;;23.70;83.80;;;;;;4993400;28;20072;-68
2022/08/30 08:56:13;;;;;;;0.00;0.00;;;23.90;84.00;;;;;;4957995;28;20039;-68
2022/08/30 08:58:55;;;;;;;0.10;0.10;;;24.00;83.30;;;;;;4968418;28;20198;-68
2022/08/30 09:01:26;;;;;;;2.92;1.08;;;24.10;83.70;;;;;;4968707;28;20122;-69
2022/08/30 09:03:54;;;;;;;0.50;0.50;;;24.30;83.30;;;;;;4968601;28;20034;-69
2022/08/30 09:06:58;;;;;;;0.00;0.00;;;24.50;82.60;;;;;;4968682;28;20388;-69
2022/08/30 09:09:36;;;;;;;0.13;0.10;;;24.50;81.10;;;;;;4968826;28;20139;-69
2022/08/30 09:12:04;;;;;;;21.20;4.22;;;24.70;81.30;;;;;;4956409;28;20035;-69
2022/08/30 09:14:38;;;;;;;0.60;0.47;;;24.80;81.60;;;;;;4968624;28;20097;-69
2022/08/30 09:17:08;;;;;;;0.05;0.03;;;25.00;80.40;;;;;;4952899;28;20034;-69
2022/08/30 09:19:40;;;;;;;0.43;0.25;;;24.90;80.10;;;;;;4968507;28;20107;-69
2022/08/30 09:22:41;;;;;;;0.28;0.25;;;25.10;80.00;;;;;;4950640;28;20475;-69
2022/08/30 09:25:11;;;;;;;1.42;1.10;;;25.20;79.80;;;;;;4948867;29;20083;-69
2022/08/30 09:27:39;;;;;;;5.90;0.83;;;25.40;79.00;;;;;;4998313;28;20045;-69
2022/08/30 09:30:18;;;;;;;0.28;0.25;;;25.60;79.20;;;;;;5010034;28;20479;-69
2022/08/30 09:33:16;;;;;;;0.70;0.25;;;25.60;78.50;;;;;;5009864;28;20044;-69
2022/08/30 09:35:49;;;;;;;0.13;0.13;;;25.80;78.70;;;;;;5009821;28;20153;-69
2022/08/30 09:38:34;;;;;;;0.32;0.30;;;25.80;78.30;;;;;;4992542;28;20125;-69
2022/08/30 09:41:26;;;;;;;0.55;0.55;;;25.60;77.70;;;;;;4994017;28;20088;-69
2022/08/30 09:44:18;;;;;;;0.45;0.32;;;25.70;77.80;;;;;;5009731;28;20026;-69
2022/08/30 09:46:50;;;;;;;3.30;1.15;;;25.80;77.70;;;;;;4990905;28;20386;-69
2022/08/30 09:49:42;;;;;;;0.20;0.20;;;26.10;77.80;;;;;;5029472;28;20547;-69
2022/08/30 09:52:52;;;;;;;0.65;0.50;;;26.20;77.50;;;;;;5012219;28;20396;-69
2022/08/30 09:55:42;;;;;;;0.10;0.10;;;26.60;77.10;;;;;;5014138;28;20549;-69
2022/08/30 09:58:58;;;;;;;0.00;0.00;;;26.60;76.50;;;;;;5029746;28;20030;-70
2022/08/30 10:01:35;;;;;;;0.55;0.30;;;26.60;75.60;;;;;;4951958;28;20102;-69
2022/08/30 10:04:22;;;;;;;0.10;0.10;;;26.90;75.80;;;;;;5010921;28;20038;-69
2022/08/30 10:06:59;;;;;;;1.08;0.88;;;27.10;75.70;;;;;;5028233;28;20117;-69
2022/08/30 10:09:45;;;;;;;0.73;0.45;;;27.20;74.80;;;;;;5028424;28;20036;-68
2022/08/30 10:12:44;;;;;;;0.15;0.08;;;27.40;74.70;;;;;;5030624;28;20409;-68
2022/08/30 10:15:48;;;;;;;2.63;1.23;;;27.40;74.50;;;;;;5032993;28;20478;-68
2022/08/30 10:18:30;;;;;;;0.20;0.10;;;27.30;74.60;;;;;;5011281;28;20052;-69
2022/08/30 10:21:24;;;;;;;0.90;0.80;;;27.60;74.20;;;;;;5031842;28;20116;-69
2022/08/30 10:24:06;;;;;;;0.30;0.30;;;27.70;73.20;;;;;;5032086;28;20078;-69
2022/08/30 10:27:00;;;;;;;0.98;0.85;;;28.00;73.20;;;;;;5014527;28;20049;-69
2022/08/30 10:29:52;;;;;;;0.50;0.22;;;28.30;72.90;;;;;;5031232;28;20693;-71
2022/08/30 10:32:33;;;;;;;1.10;1.08;;;28.50;72.00;;;;;;5032524;28;20030;-70
2022/08/30 10:35:15;;;;;;;1.08;0.55;;;28.70;71.10;;;;;;5031112;28;20022;-71
2022/08/30 10:37:57;;;;;;;0.20;0.15;;;28.80;71.50;;;;;;5031503;28;20030;-70
2022/08/30 10:44:18;;;;;;;0.47;0.47;;;29.10;72.20;;;;;;5031428;28;20025;-69
2022/08/30 10:47:01;;;;;;;0.88;0.45;;;29.00;70.20;;;;;;5001473;28;20045;-70
2022/08/30 10:49:33;;;;;;;0.40;0.40;;;29.00;70.70;;;;;;5032495;28;20044;-70
2022/08/30 10:52:42;;;;;;;0.55;0.43;;;28.60;70.10;;;;;;5030996;28;20037;-70
2022/08/30 10:55:23;;;;;;;0.50;0.25;;;29.00;70.60;;;;;;5031951;28;20482;-70
2022/08/30 10:57:50;;;;;;;0.08;0.08;;;29.30;69.40;;;;;;5032287;28;20405;-69
2022/08/30 11:00:29;;;;;;;3.70;0.10;;;29.40;69.70;;;;;;5031782;28;20064;-72
2022/08/30 11:03:39;;;;;;;0.20;0.20;;;29.50;69.10;;;;;;5030507;28;20481;-72
2022/08/30 11:06:39;;;;;;;0.10;0.10;;;29.60;69.00;;;;;;5032141;28;20037;-72
2022/08/30 11:09:26;;;;;;;0.70;0.45;;;29.10;68.40;;;;;;5030717;28;20038;-72
2022/08/30 11:11:54;;;;;;;0.10;0.10;;;29.30;68.70;;;;;;5017190;28;20462;-72
2022/08/30 11:14:21;;;;;;;1.58;0.75;;;29.80;68.40;;;;;;5011848;28;20465;-72
2022/08/30 11:16:52;;;;;;;0.93;0.70;;;30.00;67.00;;;;;;5012137;28;20029;-72
2022/08/30 11:19:47;;;;;;;1.23;0.88;;;30.30;67.20;;;;;;4994217;28;20113;-72
2022/08/30 11:22:25;;;;;;;0.00;0.00;;;30.60;67.50;;;;;;5027895;28;20121;-72
2022/08/30 11:25:15;;;;;;;0.10;0.10;;;30.50;67.40;;;;;;5014926;28;20470;-72
2022/08/30 11:27:54;;;;;;;0.38;0.38;;;30.60;66.60;;;;;;5014384;28;20030;-72
2022/08/30 11:30:25;;;;;;;0.10;0.10;;;30.40;66.30;;;;;;5014010;28;20034;-72
2022/08/30 11:33:08;;;;;;;0.70;0.70;;;30.90;65.60;;;;;;5031354;28;20588;-72
2022/08/30 11:35:53;;;;;;;0.70;0.20;;;31.10;64.90;;;;;;5031668;28;20123;-72
2022/08/30 11:38:39;;;;;;;0.15;0.15;;;31.00;65.60;;;;;;5014439;28;20040;-71
2022/08/30 11:41:28;;;;;;;0.17;0.17;;;31.00;65.30;;;;;;5031060;28;20037;-72
2022/08/30 11:43:55;;;;;;;0.30;0.30;;;30.80;64.60;;;;;;5015679;28;20033;-72
2022/08/30 11:46:27;;;;;;;0.43;0.28;;;31.20;64.50;;;;;;5024479;28;20087;-72
2022/08/30 11:49:14;;;;;;;13.05;2.28;;;31.00;64.20;;;;;;5011359;28;20030;-71
2022/08/30 11:51:42;;;;;;;0.63;0.63;;;31.50;64.50;;;;;;5025789;28;20083;-72
2022/08/30 11:54:19;;;;;;;0.50;0.50;;;32.10;64.10;;;;;;5012818;28;20084;-72
2022/08/30 11:57:20;;;;;;;0.35;0.32;;;32.20;63.40;;;;;;5013133;28;20449;-72
2022/08/30 12:00:01;;;;;;;0.38;0.35;;;32.20;62.90;;;;;;5030920;28;20071;-72
2022/08/30 12:02:49;;;;;;;0.00;0.00;;;32.40;63.00;;;;;;5014681;28;20486;-71
2022/08/30 12:05:39;;;;;;;1.95;0.80;;;32.40;61.80;;;;;;5030201;28;20033;-72
2022/08/30 12:08:33;;;;;;;0.93;0.60;;;32.40;61.60;;;;;;5030827;28;20041;-71
2022/08/30 12:11:07;;;;;;;0.40;0.40;;;33.00;61.70;;;;;;5030494;28;20044;-72
2022/08/30 12:13:33;;;;;;;2.50;1.02;;;32.70;61.50;;;;;;5030563;28;20021;-71
2022/08/30 12:16:08;;;;;;;0.30;0.30;;;32.10;61.20;;;;;;5030563;28;20036;-71
2022/08/30 12:18:59;;;;;;;1.13;0.52;;;31.30;62.30;;;;;;5030747;28;20397;-71
2022/08/30 12:21:32;;;;;;;0.45;0.20;;;31.60;62.50;;;;;;5029502;28;20029;-71
2022/08/30 12:24:09;;;;;;;0.70;0.57;;;31.90;62.70;;;;;;5030202;28;20041;-71
2022/08/30 12:26:42;;;;;;;0.30;0.30;;;32.00;61.90;;;;;;5012684;28;20497;-71
2022/08/30 12:29:30;;;;;;;1.75;0.95;;;32.10;62.20;;;;;;5029014;28;20057;-71
2022/08/30 12:32:18;;;;;;;1.85;0.22;;;32.70;61.60;;;;;;5029052;28;20025;-71
2022/08/30 12:34:43;;;;;;;0.32;0.28;;;32.50;61.00;;;;;;5028250;28;20034;-71
2022/08/30 12:37:32;;;;;;;0.60;0.22;;;32.70;60.60;;;;;;5030258;28;20163;-72
2022/08/30 12:40:21;;;;;;;4.75;0.70;;;32.80;60.50;;;;;;5030303;28;20037;-71
2022/08/30 12:42:56;;;;;;;0.22;0.22;;;33.00;60.90;;;;;;5028800;28;20033;-71
2022/08/30 12:45:30;;;;;;;0.03;0.03;;;32.60;60.70;;;;;;5030174;28;20037;-71
2022/08/30 12:48:09;;;;;;;0.50;0.30;;;33.00;61.10;;;;;;5012802;28;20030;-71
2022/08/30 12:50:52;;;;;;;0.10;0.10;;;33.10;60.00;;;;;;5028829;28;20036;-71
2022/08/30 12:53:35;;;;;;;26.38;0.55;;;33.60;59.60;;;;;;5028647;28;20511;-71
2022/08/30 12:56:10;;;;;;;1.98;1.77;;;33.70;59.60;;;;;;5028805;28;20030;-71
2022/08/30 12:58:51;;;;;;;2.80;1.20;;;34.20;59.30;;;;;;5030012;28;20124;-72
2022/08/30 13:01:25;;;;;;;0.00;0.00;;;33.90;58.30;;;;;;5028546;28;20044;-71
2022/08/30 13:04:25;;;;;;;0.88;0.40;;;33.60;58.70;;;;;;5029800;28;20117;-71
2022/08/30 13:06:57;;;;;;;0.25;0.25;;;33.30;59.10;;;;;;5028932;28;20444;-71
2022/08/30 13:09:34;;;;;;;0.52;0.17;;;33.90;59.00;;;;;;5030207;28;20036;-72
2022/08/30 13:12:04;;;;;;;3.08;1.40;;;34.50;58.30;;;;;;5012706;28;20030;-72
2022/08/30 13:14:41;;;;;;;0.13;0.13;;;35.10;57.80;;;;;;5009031;28;20125;-71
2022/08/30 13:17:22;;;;;;;0.05;0.05;;;34.60;56.70;;;;;;5009325;28;20037;-71
2022/08/30 13:20:22;;;;;;;0.10;0.10;;;34.80;57.50;;;;;;5010262;28;20430;-72
2022/08/30 13:23:09;;;;;;;;;;;33.80;57.80;;;;;;5010446;28;20034;-72
2022/08/30 13:25:37;;;;;;;0.20;0.10;;;34.20;57.50;;;;;;5009925;28;20416;-71
2022/08/30 13:28:06;;;;;;;0.85;0.60;;;34.10;57.40;;;;;;5008950;28;20034;-71